sensor_id;sensor_type;location;lat;lon;timestamp;pressure;altitude;pressure_sealevel;temperature;humidity
6859;BME280;3468;42.824;23.240;2022-09-09T15:24:12;-16210.22;;;26.63;67.54
6859;BME280;3468;42.824;23.240;2022-09-09T15:26:38;-16207.69;;;26.52;66.71
6859;BME280;3468;42.824;23.240;2022-09-09T15:29:05;-16207.00;;;26.49;67.39
6859;BME280;3468;42.824;23.240;2022-09-09T15:31:33;-16208.41;;;26.55;68.78
6859;BME280;3468;42.824;23.240;2022-09-09T15:34:02;-16209.06;;;26.58;68.06
6859;BME280;3468;42.824;23.240;2022-09-09T15:36:30;-16210.09;;;26.62;67.48
6859;BME280;3468;42.824;23.240;2022-09-09T15:38:58;-16208.84;;;26.57;68.86
6859;BME280;3468;42.824;23.240;2022-09-09T15:41:26;-16205.31;;;26.42;69.06
6859;BME280;3468;42.824;23.240;2022-09-09T15:43:55;-16204.97;;;26.40;68.99
6859;BME280;3468;42.824;23.240;2022-09-09T15:46:28;-16203.81;;;26.35;69.77
6859;BME280;3468;42.824;23.240;2022-09-09T15:48:57;-16202.09;;;26.28;71.01
6859;BME280;3468;42.824;23.240;2022-09-09T15:51:25;-16200.47;;;26.21;70.27
6859;BME280;3468;42.824;23.240;2022-09-09T15:53:57;-16198.06;;;26.11;69.93
6859;BME280;3468;42.824;23.240;2022-09-09T15:56:26;-16196.25;;;26.03;70.21
6859;BME280;3468;42.824;23.240;2022-09-09T15:58:55;-16194.63;;;25.96;70.33
6859;BME280;3468;42.824;23.240;2022-09-09T16:01:22;-16192.13;;;25.85;71.19
6859;BME280;3468;42.824;23.240;2022-09-09T16:03:49;-16190.41;;;25.77;71.74
6859;BME280;3468;42.824;23.240;2022-09-09T16:06:17;-16186.94;;;25.63;71.70
6859;BME280;3468;42.824;23.240;2022-09-09T16:08:48;-16185.22;;;25.55;72.76
6859;BME280;3468;42.824;23.240;2022-09-09T16:11:17;-16184.53;;;25.52;73.61
6859;BME280;3468;42.824;23.240;2022-09-09T16:13:47;-16181.44;;;25.39;73.65
6859;BME280;3468;42.824;23.240;2022-09-09T16:16:16;-16178.56;;;25.27;75.25
6859;BME280;3468;42.824;23.240;2022-09-09T16:18:44;-16175.13;;;25.12;75.63
6859;BME280;3468;42.824;23.240;2022-09-09T16:21:14;-16172.59;;;25.01;76.26
6859;BME280;3468;42.824;23.240;2022-09-09T16:23:41;-16169.50;;;24.88;76.33
6859;BME280;3468;42.824;23.240;2022-09-09T16:26:11;-16166.63;;;24.75;78.26
6859;BME280;3468;42.824;23.240;2022-09-09T16:28:38;-16160.91;;;24.51;78.45
6859;BME280;3468;42.824;23.240;2022-09-09T16:31:08;-16155.84;;;24.29;78.49
6859;BME280;3468;42.824;23.240;2022-09-09T16:33:35;-16157.22;;;24.35;79.79
6859;BME280;3468;42.824;23.240;2022-09-09T16:36:05;-16155.38;;;24.27;80.48
6859;BME280;3468;42.824;23.240;2022-09-09T16:38:32;-16153.78;;;24.20;82.10
6859;BME280;3468;42.824;23.240;2022-09-09T16:41:01;-16151.69;;;24.11;81.05
6859;BME280;3468;42.824;23.240;2022-09-09T16:43:28;-16149.41;;;24.01;82.53
6859;BME280;3468;42.824;23.240;2022-09-09T16:45:55;-16147.78;;;23.94;82.30
6859;BME280;3468;42.824;23.240;2022-09-09T16:48:23;-16145.84;;;23.86;83.41
6859;BME280;3468;42.824;23.240;2022-09-09T16:50:50;-16144.13;;;23.78;84.81
6859;BME280;3468;42.824;23.240;2022-09-09T16:53:16;-16142.28;;;23.70;85.21
6859;BME280;3468;42.824;23.240;2022-09-09T16:55:43;-16139.28;;;23.58;85.85
6859;BME280;3468;42.824;23.240;2022-09-09T16:58:10;-16135.25;;;23.40;86.94
6859;BME280;3468;42.824;23.240;2022-09-09T17:00:37;-16132.97;;;23.30;88.55
6859;BME280;3468;42.824;23.240;2022-09-09T17:03:04;-16131.22;;;23.23;89.13
6859;BME280;3468;42.824;23.240;2022-09-09T17:05:32;-16129.41;;;23.15;87.99
6859;BME280;3468;42.824;23.240;2022-09-09T17:07:59;-16124.56;;;22.94;88.13
6859;BME280;3468;42.824;23.240;2022-09-09T17:10:26;-16122.25;;;22.84;88.08
6859;BME280;3468;42.824;23.240;2022-09-09T17:12:55;-16123.28;;;22.89;89.06
6859;BME280;3468;42.824;23.240;2022-09-09T17:15:24;-16120.19;;;22.76;89.54
6859;BME280;3468;42.824;23.240;2022-09-09T17:17:51;-16117.88;;;22.66;90.34
6859;BME280;3468;42.824;23.240;2022-09-09T17:20:19;-16117.53;;;22.64;92.00
6859;BME280;3468;42.824;23.240;2022-09-09T17:22:48;-16115.34;;;22.55;92.96
6859;BME280;3468;42.824;23.240;2022-09-09T17:25:15;-16113.50;;;22.47;94.54
6859;BME280;3468;42.824;23.240;2022-09-09T17:27:42;-16112.47;;;22.42;94.66
6859;BME280;3468;42.824;23.240;2022-09-09T17:30:11;-16110.75;;;22.35;95.76
6859;BME280;3468;42.824;23.240;2022-09-09T17:32:38;-16109.03;;;22.28;97.69
6859;BME280;3468;42.824;23.240;2022-09-09T17:35:05;-16108.44;;;22.25;97.66
6859;BME280;3468;42.824;23.240;2022-09-09T17:37:32;-16107.06;;;22.19;97.82
6859;BME280;3468;42.824;23.240;2022-09-09T17:40:00;-16107.53;;;22.21;97.53
6859;BME280;3468;42.824;23.240;2022-09-09T17:42:27;-16105.69;;;22.13;97.31
6859;BME280;3468;42.824;23.240;2022-09-09T17:44:54;-16103.50;;;22.04;97.85
6859;BME280;3468;42.824;23.240;2022-09-09T17:47:21;-16100.28;;;21.90;99.43
6859;BME280;3468;42.824;23.240;2022-09-09T17:49:47;-16097.41;;;21.78;99.84
6859;BME280;3468;42.824;23.240;2022-09-09T17:52:14;-16095.31;;;21.69;100.00
6859;BME280;3468;42.824;23.240;2022-09-09T17:54:41;-16093.13;;;21.59;100.00
6859;BME280;3468;42.824;23.240;2022-09-09T17:57:09;-16093.25;;;21.60;100.00
6859;BME280;3468;42.824;23.240;2022-09-09T17:59:36;-16092.31;;;21.56;100.00
6859;BME280;3468;42.824;23.240;2022-09-09T18:02:03;-16092.91;;;21.58;100.00
6859;BME280;3468;42.824;23.240;2022-09-09T18:04:30;-16092.09;;;21.55;100.00
6859;BME280;3468;42.824;23.240;2022-09-09T18:06:57;-16091.88;;;21.54;100.00
6859;BME280;3468;42.824;23.240;2022-09-09T18:09:25;-16091.06;;;21.51;100.00
6859;BME280;3468;42.824;23.240;2022-09-09T18:11:55;-16091.19;;;21.51;100.00
6859;BME280;3468;42.824;23.240;2022-09-09T18:14:26;-16091.19;;;21.51;100.00
6859;BME280;3468;42.824;23.240;2022-09-09T18:16:54;-16090.94;;;21.50;100.00
6859;BME280;3468;42.824;23.240;2022-09-09T18:19:23;-16091.53;;;21.53;100.00
6859;BME280;3468;42.824;23.240;2022-09-09T18:21:51;-16093.03;;;21.59;100.00
6859;BME280;3468;42.824;23.240;2022-09-09T18:24:19;-16092.31;;;21.56;100.00
6859;BME280;3468;42.824;23.240;2022-09-09T18:26:47;-16090.03;;;21.46;100.00
6859;BME280;3468;42.824;23.240;2022-09-09T18:29:16;-16091.97;;;21.55;100.00
6859;BME280;3468;42.824;23.240;2022-09-09T18:31:46;-16091.41;;;21.52;100.00
6859;BME280;3468;42.824;23.240;2022-09-09T18:34:15;-16090.38;;;21.48;100.00
6859;BME280;3468;42.824;23.240;2022-09-09T18:36:44;-16093.72;;;21.62;100.00
6859;BME280;3468;42.824;23.240;2022-09-09T18:39:13;-16092.78;;;21.58;100.00
6859;BME280;3468;42.824;23.240;2022-09-09T18:41:41;-16089.34;;;21.43;100.00
6859;BME280;3468;42.824;23.240;2022-09-09T18:44:10;-16084.25;;;21.21;100.00
6859;BME280;3468;42.824;23.240;2022-09-09T18:46:38;-16090.47;;;21.48;100.00
6859;BME280;3468;42.824;23.240;2022-09-09T18:49:07;-16094.97;;;21.67;100.00
6859;BME280;3468;42.824;23.240;2022-09-09T18:51:36;-16093.94;;;21.63;100.00
6859;BME280;3468;42.824;23.240;2022-09-09T18:54:07;-16094.28;;;21.64;100.00
6859;BME280;3468;42.824;23.240;2022-09-09T18:56:36;-16094.28;;;21.64;100.00
6859;BME280;3468;42.824;23.240;2022-09-09T18:59:04;-16093.03;;;21.59;100.00
6859;BME280;3468;42.824;23.240;2022-09-09T19:01:32;-16090.13;;;21.47;100.00
6859;BME280;3468;42.824;23.240;2022-09-09T19:04:00;-16087.59;;;21.36;100.00
6859;BME280;3468;42.824;23.240;2022-09-09T19:06:30;-16080.00;;;21.03;100.00
6859;BME280;3468;42.824;23.240;2022-09-09T19:08:57;-16081.94;;;21.12;100.00
6859;BME280;3468;42.824;23.240;2022-09-09T19:11:25;-16081.50;;;21.10;100.00
6859;BME280;3468;42.824;23.240;2022-09-09T19:13:53;-16078.50;;;20.97;100.00
6859;BME280;3468;42.824;23.240;2022-09-09T19:16:21;-16069.38;;;20.58;100.00
6859;BME280;3468;42.824;23.240;2022-09-09T19:18:48;-16075.97;;;20.86;100.00
6859;BME280;3468;42.824;23.240;2022-09-09T19:21:17;-16074.34;;;20.79;100.00
6859;BME280;3468;42.824;23.240;2022-09-09T19:23:52;-16079.88;;;21.03;100.00
6859;BME280;3468;42.824;23.240;2022-09-09T19:26:24;-16079.06;;;20.99;100.00
6859;BME280;3468;42.824;23.240;2022-09-09T19:28:51;-16081.59;;;21.10;100.00
6859;BME280;3468;42.824;23.240;2022-09-09T19:31:19;-16082.19;;;21.13;100.00
6859;BME280;3468;42.824;23.240;2022-09-09T19:33:46;-16081.94;;;21.12;100.00
6859;BME280;3468;42.824;23.240;2022-09-09T19:36:15;-16081.25;;;21.09;100.00
6859;BME280;3468;42.824;23.240;2022-09-09T19:38:42;-16078.72;;;20.98;100.00
6859;BME280;3468;42.824;23.240;2022-09-09T19:41:18;-16079.53;;;21.01;100.00
6859;BME280;3468;42.824;23.240;2022-09-09T19:43:46;-16075.84;;;20.85;100.00
6859;BME280;3468;42.824;23.240;2022-09-09T19:46:14;-16078.50;;;20.97;100.00
6859;BME280;3468;42.824;23.240;2022-09-09T19:48:43;-16077.09;;;20.91;100.00
6859;BME280;3468;42.824;23.240;2022-09-09T19:51:13;-16075.97;;;20.86;100.00
6859;BME280;3468;42.824;23.240;2022-09-09T19:53:41;-16073.88;;;20.77;100.00
6859;BME280;3468;42.824;23.240;2022-09-09T19:56:09;-16073.41;;;20.75;100.00
6859;BME280;3468;42.824;23.240;2022-09-09T19:58:38;-16071.91;;;20.69;100.00
6859;BME280;3468;42.824;23.240;2022-09-09T20:01:07;-16042.72;;;19.44;100.00
6859;BME280;3468;42.824;23.240;2022-09-09T20:03:34;-16070.66;;;20.63;100.00
6859;BME280;3468;42.824;23.240;2022-09-09T20:06:03;-16068.91;;;20.56;100.00
6859;BME280;3468;42.824;23.240;2022-09-09T20:08:30;-16067.31;;;20.49;100.00
6859;BME280;3468;42.824;23.240;2022-09-09T20:10:57;-16062.56;;;20.29;100.00
6859;BME280;3468;42.824;23.240;2022-09-09T20:13:25;-16068.13;;;20.52;100.00
6859;BME280;3468;42.824;23.240;2022-09-09T20:15:58;-16066.63;;;20.46;100.00
6859;BME280;3468;42.824;23.240;2022-09-09T20:18:27;-16066.28;;;20.44;100.00
6859;BME280;3468;42.824;23.240;2022-09-09T20:20:57;-16064.41;;;20.36;100.00
6859;BME280;3468;42.824;23.240;2022-09-09T20:23:25;-16063.28;;;20.31;100.00
6859;BME280;3468;42.824;23.240;2022-09-09T20:25:52;-16063.16;;;20.31;100.00
6859;BME280;3468;42.824;23.240;2022-09-09T20:28:19;-16062.34;;;20.28;100.00
6859;BME280;3468;42.824;23.240;2022-09-09T20:30:46;-16060.03;;;20.18;100.00
6859;BME280;3468;42.824;23.240;2022-09-09T20:33:17;-16061.06;;;20.22;100.00
6859;BME280;3468;42.824;23.240;2022-09-09T20:35:44;-16058.78;;;20.12;100.00
6859;BME280;3468;42.824;23.240;2022-09-09T20:38:10;-16057.97;;;20.09;100.00
6859;BME280;3468;42.824;23.240;2022-09-09T20:40:38;-16057.16;;;20.05;100.00
6859;BME280;3468;42.824;23.240;2022-09-09T20:43:09;-16054.03;;;19.92;100.00
6859;BME280;3468;42.824;23.240;2022-09-09T20:45:37;-16057.03;;;20.05;100.00
6859;BME280;3468;42.824;23.240;2022-09-09T20:48:05;-16056.81;;;20.04;100.00
6859;BME280;3468;42.824;23.240;2022-09-09T20:50:35;-16055.78;;;19.99;100.00
6859;BME280;3468;42.824;23.240;2022-09-09T20:53:02;-16053.00;;;19.88;100.00
6859;BME280;3468;42.824;23.240;2022-09-09T20:55:30;-16052.19;;;19.84;100.00
6859;BME280;3468;42.824;23.240;2022-09-09T20:57:56;-16051.97;;;19.83;100.00
6859;BME280;3468;42.824;23.240;2022-09-09T21:00:24;-16051.63;;;19.82;100.00
6859;BME280;3468;42.824;23.240;2022-09-09T21:02:51;-16048.03;;;19.66;100.00
6859;BME280;3468;42.824;23.240;2022-09-09T21:05:18;-16048.50;;;19.68;100.00
6859;BME280;3468;42.824;23.240;2022-09-09T21:07:46;-16049.66;;;19.73;100.00
6859;BME280;3468;42.824;23.240;2022-09-09T21:10:13;-16048.50;;;19.68;100.00
6859;BME280;3468;42.824;23.240;2022-09-09T21:12:39;-16040.75;;;19.35;100.00
6859;BME280;3468;42.824;23.240;2022-09-09T21:15:07;-16049.19;;;19.71;100.00
6859;BME280;3468;42.824;23.240;2022-09-09T21:17:34;-16046.31;;;19.59;100.00
6859;BME280;3468;42.824;23.240;2022-09-09T21:20:01;-16046.53;;;19.60;100.00
6859;BME280;3468;42.824;23.240;2022-09-09T21:22:28;-16047.34;;;19.63;100.00
6859;BME280;3468;42.824;23.240;2022-09-09T21:24:57;-16048.25;;;19.67;100.00
6859;BME280;3468;42.824;23.240;2022-09-09T21:27:24;-16048.84;;;19.70;100.00
6859;BME280;3468;42.824;23.240;2022-09-09T21:29:51;-16046.19;;;19.58;100.00
6859;BME280;3468;42.824;23.240;2022-09-09T21:32:18;-16050.34;;;19.76;100.00
6859;BME280;3468;42.824;23.240;2022-09-09T21:34:45;-16049.06;;;19.71;100.00
6859;BME280;3468;42.824;23.240;2022-09-09T21:37:12;-16048.84;;;19.70;100.00
6859;BME280;3468;42.824;23.240;2022-09-09T21:39:39;-16048.16;;;19.67;100.00
6859;BME280;3468;42.824;23.240;2022-09-09T21:42:07;-16045.72;;;19.56;100.00
6859;BME280;3468;42.824;23.240;2022-09-09T21:44:34;-16043.41;;;19.47;100.00
6859;BME280;3468;42.824;23.240;2022-09-09T21:47:00;-16042.59;;;19.43;100.00
6859;BME280;3468;42.824;23.240;2022-09-09T21:49:29;-16037.41;;;19.21;100.00
6859;BME280;3468;42.824;23.240;2022-09-09T21:51:55;-16030.47;;;18.91;100.00
6859;BME280;3468;42.824;23.240;2022-09-09T21:54:22;-16038.09;;;19.24;100.00
6859;BME280;3468;42.824;23.240;2022-09-09T21:56:50;-16038.56;;;19.26;100.00
6859;BME280;3468;42.824;23.240;2022-09-09T21:59:18;-16041.34;;;19.38;100.00
6859;BME280;3468;42.824;23.240;2022-09-09T22:01:45;-16042.72;;;19.44;100.00
6859;BME280;3468;42.824;23.240;2022-09-09T22:04:12;-16043.66;;;19.48;100.00
6859;BME280;3468;42.824;23.240;2022-09-09T22:06:39;-16043.88;;;19.48;100.00
6859;BME280;3468;42.824;23.240;2022-09-09T22:09:06;-16042.16;;;19.41;100.00
6859;BME280;3468;42.824;23.240;2022-09-09T22:11:32;-16045.25;;;19.54;100.00
6859;BME280;3468;42.824;23.240;2022-09-09T22:14:00;-16039.03;;;19.28;100.00
6859;BME280;3468;42.824;23.240;2022-09-09T22:16:28;-16047.91;;;19.66;100.00
6859;BME280;3468;42.824;23.240;2022-09-09T22:18:58;-16038.56;;;19.26;100.00
6859;BME280;3468;42.824;23.240;2022-09-09T22:21:27;-16048.38;;;19.68;100.00
6859;BME280;3468;42.824;23.240;2022-09-09T22:23:55;-16047.34;;;19.63;100.00
6859;BME280;3468;42.824;23.240;2022-09-09T22:26:24;-16049.06;;;19.71;100.00
6859;BME280;3468;42.824;23.240;2022-09-09T22:28:51;-16050.56;;;19.77;100.00
6859;BME280;3468;42.824;23.240;2022-09-09T22:31:19;-16050.69;;;19.78;100.00
6859;BME280;3468;42.824;23.240;2022-09-09T22:33:48;-16046.88;;;19.61;100.00
6859;BME280;3468;42.824;23.240;2022-09-09T22:36:16;-16050.81;;;19.78;100.00
6859;BME280;3468;42.824;23.240;2022-09-09T22:38:44;-16051.03;;;19.79;100.00
6859;BME280;3468;42.824;23.240;2022-09-09T22:41:11;-16048.97;;;19.70;100.00
6859;BME280;3468;42.824;23.240;2022-09-09T22:43:40;-16048.03;;;19.66;100.00
6859;BME280;3468;42.824;23.240;2022-09-09T22:46:08;-16048.50;;;19.68;100.00
6859;BME280;3468;42.824;23.240;2022-09-09T22:48:36;-16049.31;;;19.72;100.00
6859;BME280;3468;42.824;23.240;2022-09-09T22:51:06;-16050.34;;;19.76;100.00
6859;BME280;3468;42.824;23.240;2022-09-09T22:53:34;-16052.19;;;19.84;100.00
6859;BME280;3468;42.824;23.240;2022-09-09T22:56:03;-16051.03;;;19.79;100.00
6859;BME280;3468;42.824;23.240;2022-09-09T22:58:33;-16051.50;;;19.81;100.00
6859;BME280;3468;42.824;23.240;2022-09-09T23:01:07;-16053.13;;;19.88;100.00
6859;BME280;3468;42.824;23.240;2022-09-09T23:03:34;-16049.88;;;19.74;100.00
6859;BME280;3468;42.824;23.240;2022-09-09T23:06:01;-16049.41;;;19.72;100.00
6859;BME280;3468;42.824;23.240;2022-09-09T23:08:32;-16051.84;;;19.83;100.00
6859;BME280;3468;42.824;23.240;2022-09-09T23:11:03;-16054.28;;;19.93;100.00
6859;BME280;3468;42.824;23.240;2022-09-09T23:13:33;-16055.06;;;19.96;100.00
6859;BME280;3468;42.824;23.240;2022-09-09T23:16:07;-16055.06;;;19.96;100.00
6859;BME280;3468;42.824;23.240;2022-09-09T23:18:34;-16055.53;;;19.98;100.00
6859;BME280;3468;42.824;23.240;2022-09-09T23:21:01;-16053.22;;;19.89;100.00
6859;BME280;3468;42.824;23.240;2022-09-09T23:23:32;-16053.13;;;19.88;100.00
6859;BME280;3468;42.824;23.240;2022-09-09T23:26:00;-16054.03;;;19.92;100.00
6859;BME280;3468;42.824;23.240;2022-09-09T23:28:29;-16052.53;;;19.86;100.00
6859;BME280;3468;42.824;23.240;2022-09-09T23:30:56;-16047.34;;;19.63;100.00
6859;BME280;3468;42.824;23.240;2022-09-09T23:33:23;-16053.13;;;19.88;100.00
6859;BME280;3468;42.824;23.240;2022-09-09T23:35:57;-16050.34;;;19.76;100.00
6859;BME280;3468;42.824;23.240;2022-09-09T23:38:24;-16050.47;;;19.77;100.00
6859;BME280;3468;42.824;23.240;2022-09-09T23:40:54;-16050.22;;;19.76;100.00
6859;BME280;3468;42.824;23.240;2022-09-09T23:43:22;-16041.81;;;19.40;100.00
6859;BME280;3468;42.824;23.240;2022-09-09T23:45:51;-16052.53;;;19.86;100.00
6859;BME280;3468;42.824;23.240;2022-09-09T23:48:18;-16050.56;;;19.77;100.00
6859;BME280;3468;42.824;23.240;2022-09-09T23:50:46;-16049.66;;;19.73;100.00
6859;BME280;3468;42.824;23.240;2022-09-09T23:53:14;-16048.72;;;19.69;100.00
6859;BME280;3468;42.824;23.240;2022-09-09T23:55:41;-16047.09;;;19.62;100.00
6859;BME280;3468;42.824;23.240;2022-09-09T23:58:09;-16043.19;;;19.46;100.00
